Nichiryu Maru — JG5632 — position and weather

sailwx.info

Track history (hours):
 
Tides and Currents Weather Stations Pressure Air Temp Water Temp Dewpoint Dewpoint Depression Visibility Wind Speed Wind Dir Waves Ship Positions

Nichiryu Maru

Last reported at 2015-Jan-30 07:32 UTC. Time now 2015-Feb-01 19:44 UTC.
Position N 34°36' E 134°53'.

Length 158 m; draft 6.5 m.

Type: Cargo ship. MMSI: 43100939.

Date/timePositionNaut miles runAvg speedWind from/ knotsBaromVisibWave heightAir tempDewpointWater temp
2015-Jan-30 07:32N 34°36' E 134°53'1717.3
2015-Jan-30 06:33N 34°36' E 135°14'4 3.8
2015-Jan-30 05:28N 34°41' E 135°13'0 0.0
2015-Jan-30 04:28N 34°41' E 135°13'3 3.7
2015-Jan-30 03:33N 34°38' E 135°16'1818.0
2015-Jan-30 02:33N 34°23' E 135°04'1716.8
2015-Jan-30 01:33N 34°07' E 134°59'22615.7
2015-Jan-29 11:09N 34°55' E 139°27'1220.0
2015-Jan-29 10:33N 35°04' E 139°38'1514.5
2015-Jan-29 09:33N 35°17' E 139°45'5 5.0
2015-Jan-29 08:33N 35°19' E 139°39'0 0.0
2015-Jan-29 07:33N 35°19' E 139°39'0 0.0
2015-Jan-29 06:33N 35°19' E 139°39'0 0.0
2015-Jan-29 05:21N 35°19' E 139°39'0 0.0
2015-Jan-29 04:33N 35°19' E 139°39'4 3.7
2015-Jan-29 03:33N 35°18' E 139°43'1212.0
2015-Jan-29 02:33N 35°06' E 139°45'1918.2
2015-Jan-29 01:30N 34°53' E 139°28'229 5.4
2015-Jan-27 07:09N 34°34' E 134°50'1118.5
2015-Jan-27 06:33N 34°36' E 135°04'9 9.5
2015-Jan-27 05:33N 34°41' E 135°14'0 0.2
2015-Jan-27 04:30N 34°41' E 135°13'0 0.0
2015-Jan-27 03:33N 34°41' E 135°13'1010.0
2015-Jan-27 02:33N 34°31' E 135°11'2019.6
2015-Jan-27 01:33N 34°14' E 134°59'22516.0
2015-Jan-26 11:31N 34°55' E 139°27'1919.8
2015-Jan-26 10:33N 35°08' E 139°44'1111.1
2015-Jan-26 09:33N 35°19' E 139°39'0 0.3
2015-Jan-26 08:33N 35°19' E 139°39'0 0.0
2015-Jan-26 07:33N 35°19' E 139°39'0 0.0
2015-Jan-26 06:33N 35°19' E 139°39'0 0.0
2015-Jan-26 05:33N 35°19' E 139°39'0 0.0
2015-Jan-26 04:33N 35°19' E 139°39'0 0.0
2015-Jan-26 03:33N 35°19' E 139°39'0 0.0
2015-Jan-26 02:30N 35°19' E 139°39'0 0.0
2015-Jan-26 01:33N 35°19' E 139°39'0 0.0
2015-Jan-26 00:30N 35°19' E 139°39'0 0.0
2015-Jan-25 23:33N 35°19' E 139°39'5 5.3
2015-Jan-25 22:33N 35°17' E 139°45'1312.9
2015-Jan-25 21:33N 35°04' E 139°44'1917.5
2015-Jan-25 20:27N 34°52' E 139°26'  
2015-Jan-23 07:33N 34°38' E 134°59'1313.5
2015-Jan-23 06:33N 34°39' E 135°16'3 2.5
2015-Jan-23 05:32N 34°41' E 135°13'0 0.0
2015-Jan-23 04:32N 34°41' E 135°13'2 1.5
2015-Jan-23 03:33N 34°40' E 135°15'1716.9
2015-Jan-23 02:33N 34°25' E 135°06'1918.7
2015-Jan-23 01:33N 34°07' E 134°60'21616.2
2015-Jan-22 12:14N 34°47' E 139°17'1420.8
2015-Jan-22 11:33N 34°56' E 139°30'1919.2
2015-Jan-22 10:33N 35°11' E 139°45'10 9.7
2015-Jan-22 09:33N 35°19' E 139°39'0 0.0
2015-Jan-22 08:32N 35°19' E 139°39'0 0.0
2015-Jan-22 07:32N 35°19' E 139°39'0 0.0
2015-Jan-22 06:23N 35°19' E 139°39'0 0.0
2015-Jan-22 05:32N 35°19' E 139°39'0 0.0
2015-Jan-22 04:29N 35°19' E 139°39'4 3.9
2015-Jan-22 03:33N 35°18' E 139°43'1312.7
2015-Jan-22 02:33N 35°06' E 139°44'1818.0
2015-Jan-22 01:33N 34°54' E 139°27'  
Track history (hours):
 
Tides and Currents Weather Stations Pressure Air Temp Water Temp Dewpoint Dewpoint Depression Visibility Wind Speed Wind Dir Waves Ship Positions

Nichiryu Maru

Last reported at 2015-Jan-30 07:32 UTC. Time now 2015-Feb-01 19:44 UTC.
Position N 34°36' E 134°53'.

Length 158 m; draft 6.5 m.

Type: Cargo ship. MMSI: 43100939.

Date/timePositionNaut miles runAvg speedWind from/ knotsBaromVisibWave heightAir tempDewpointWater temp
2015-Jan-30 07:32N 34°36' E 134°53'1717.3
2015-Jan-30 06:33N 34°36' E 135°14'4 3.8
2015-Jan-30 05:28N 34°41' E 135°13'0 0.0
2015-Jan-30 04:28N 34°41' E 135°13'3 3.7
2015-Jan-30 03:33N 34°38' E 135°16'1818.0
2015-Jan-30 02:33N 34°23' E 135°04'1716.8
2015-Jan-30 01:33N 34°07' E 134°59'22615.7
2015-Jan-29 11:09N 34°55' E 139°27'1220.0
2015-Jan-29 10:33N 35°04' E 139°38'1514.5
2015-Jan-29 09:33N 35°17' E 139°45'5 5.0
2015-Jan-29 08:33N 35°19' E 139°39'0 0.0
2015-Jan-29 07:33N 35°19' E 139°39'0 0.0
2015-Jan-29 06:33N 35°19' E 139°39'0 0.0
2015-Jan-29 05:21N 35°19' E 139°39'0 0.0
2015-Jan-29 04:33N 35°19' E 139°39'4 3.7
2015-Jan-29 03:33N 35°18' E 139°43'1212.0
2015-Jan-29 02:33N 35°06' E 139°45'1918.2
2015-Jan-29 01:30N 34°53' E 139°28'229 5.4
2015-Jan-27 07:09N 34°34' E 134°50'1118.5
2015-Jan-27 06:33N 34°36' E 135°04'9 9.5
2015-Jan-27 05:33N 34°41' E 135°14'0 0.2
2015-Jan-27 04:30N 34°41' E 135°13'0 0.0
2015-Jan-27 03:33N 34°41' E 135°13'1010.0
2015-Jan-27 02:33N 34°31' E 135°11'2019.6
2015-Jan-27 01:33N 34°14' E 134°59'22516.0
2015-Jan-26 11:31N 34°55' E 139°27'1919.8
2015-Jan-26 10:33N 35°08' E 139°44'1111.1
2015-Jan-26 09:33N 35°19' E 139°39'0 0.3
2015-Jan-26 08:33N 35°19' E 139°39'0 0.0
2015-Jan-26 07:33N 35°19' E 139°39'0 0.0
2015-Jan-26 06:33N 35°19' E 139°39'0 0.0
2015-Jan-26 05:33N 35°19' E 139°39'0 0.0
2015-Jan-26 04:33N 35°19' E 139°39'0 0.0
2015-Jan-26 03:33N 35°19' E 139°39'0 0.0
2015-Jan-26 02:30N 35°19' E 139°39'0 0.0
2015-Jan-26 01:33N 35°19' E 139°39'0 0.0
2015-Jan-26 00:30N 35°19' E 139°39'0 0.0
2015-Jan-25 23:33N 35°19' E 139°39'5 5.3
2015-Jan-25 22:33N 35°17' E 139°45'1312.9
2015-Jan-25 21:33N 35°04' E 139°44'1917.5
2015-Jan-25 20:27N 34°52' E 139°26'  
2015-Jan-23 07:33N 34°38' E 134°59'1313.5
2015-Jan-23 06:33N 34°39' E 135°16'3 2.5
2015-Jan-23 05:32N 34°41' E 135°13'0 0.0
2015-Jan-23 04:32N 34°41' E 135°13'2 1.5
2015-Jan-23 03:33N 34°40' E 135°15'1716.9
2015-Jan-23 02:33N 34°25' E 135°06'1918.7
2015-Jan-23 01:33N 34°07' E 134°60'21616.2
2015-Jan-22 12:14N 34°47' E 139°17'1420.8
2015-Jan-22 11:33N 34°56' E 139°30'1919.2
2015-Jan-22 10:33N 35°11' E 139°45'10 9.7
2015-Jan-22 09:33N 35°19' E 139°39'0 0.0
2015-Jan-22 08:32N 35°19' E 139°39'0 0.0
2015-Jan-22 07:32N 35°19' E 139°39'0 0.0
2015-Jan-22 06:23N 35°19' E 139°39'0 0.0
2015-Jan-22 05:32N 35°19' E 139°39'0 0.0
2015-Jan-22 04:29N 35°19' E 139°39'4 3.9
2015-Jan-22 03:33N 35°18' E 139°43'1312.7
2015-Jan-22 02:33N 35°06' E 139°44'1818.0
2015-Jan-22 01:33N 34°54' E 139°27'  

Dump ship's entire track history